sensor_id;sensor_type;location;lat;lon;timestamp;temperature;humidity
31443;SHT31;18065;55.876;9.830;2023-02-13T00:01:34;22.44;51.20
31443;SHT31;18065;55.876;9.830;2023-02-13T00:04:03;22.44;51.15
31443;SHT31;18065;55.876;9.830;2023-02-13T00:06:32;22.45;51.21
31443;SHT31;18065;55.876;9.830;2023-02-13T00:09:00;22.47;51.15
31443;SHT31;18065;55.876;9.830;2023-02-13T00:11:30;22.45;51.09
31443;SHT31;18065;55.876;9.830;2023-02-13T00:14:01;22.41;51.18
31443;SHT31;18065;55.876;9.830;2023-02-13T00:16:30;22.44;51.12
31443;SHT31;18065;55.876;9.830;2023-02-13T00:18:59;22.44;51.08
31443;SHT31;18065;55.876;9.830;2023-02-13T00:21:27;22.44;51.19
31443;SHT31;18065;55.876;9.830;2023-02-13T00:23:56;22.44;51.15
31443;SHT31;18065;55.876;9.830;2023-02-13T00:26:25;22.44;51.17
31443;SHT31;18065;55.876;9.830;2023-02-13T00:28:55;22.44;51.12
31443;SHT31;18065;55.876;9.830;2023-02-13T00:31:26;22.44;51.20
31443;SHT31;18065;55.876;9.830;2023-02-13T00:33:55;22.44;51.20
31443;SHT31;18065;55.876;9.830;2023-02-13T00:36:24;22.41;51.14
31443;SHT31;18065;55.876;9.830;2023-02-13T00:38:53;22.42;51.18
31443;SHT31;18065;55.876;9.830;2023-02-13T00:41:22;22.42;51.19
31443;SHT31;18065;55.876;9.830;2023-02-13T00:43:51;22.42;51.19
31443;SHT31;18065;55.876;9.830;2023-02-13T00:46:20;22.42;51.19
31443;SHT31;18065;55.876;9.830;2023-02-13T00:48:51;22.42;51.19
31443;SHT31;18065;55.876;9.830;2023-02-13T00:51:20;22.44;51.21
31443;SHT31;18065;55.876;9.830;2023-02-13T00:53:49;22.42;51.19
31443;SHT31;18065;55.876;9.830;2023-02-13T00:56:17;22.42;51.17
31443;SHT31;18065;55.876;9.830;2023-02-13T00:58:46;22.44;51.24
31443;SHT31;18065;55.876;9.830;2023-02-13T01:01:15;22.44;51.22
31443;SHT31;18065;55.876;9.830;2023-02-13T01:03:43;22.42;51.23
31443;SHT31;18065;55.876;9.830;2023-02-13T01:06:15;22.42;51.19
31443;SHT31;18065;55.876;9.830;2023-02-13T01:08:43;22.42;51.23
31443;SHT31;18065;55.876;9.830;2023-02-13T01:11:12;22.42;51.11
31443;SHT31;18065;55.876;9.830;2023-02-13T01:13:41;22.42;51.17
31443;SHT31;18065;55.876;9.830;2023-02-13T01:16:10;22.44;51.15
31443;SHT31;18065;55.876;9.830;2023-02-13T01:18:40;22.45;51.13
31443;SHT31;18065;55.876;9.830;2023-02-13T01:21:17;22.42;51.17
31443;SHT31;18065;55.876;9.830;2023-02-13T01:23:48;22.42;51.10
31443;SHT31;18065;55.876;9.830;2023-02-13T01:26:18;22.44;51.12
31443;SHT31;18065;55.876;9.830;2023-02-13T01:28:50;22.41;51.13
31443;SHT31;18065;55.876;9.830;2023-02-13T01:31:19;22.41;51.14
31443;SHT31;18065;55.876;9.830;2023-02-13T01:33:47;22.42;51.12
31443;SHT31;18065;55.876;9.830;2023-02-13T01:36:19;22.42;51.19
31443;SHT31;18065;55.876;9.830;2023-02-13T01:38:47;22.45;51.10
31443;SHT31;18065;55.876;9.830;2023-02-13T01:41:19;22.42;51.09
31443;SHT31;18065;55.876;9.830;2023-02-13T01:43:51;22.41;51.16
31443;SHT31;18065;55.876;9.830;2023-02-13T01:46:23;22.44;51.11
31443;SHT31;18065;55.876;9.830;2023-02-13T01:48:55;22.44;51.10
31443;SHT31;18065;55.876;9.830;2023-02-13T01:51:30;22.39;51.10
31443;SHT31;18065;55.876;9.830;2023-02-13T01:54:03;22.42;51.06
31443;SHT31;18065;55.876;9.830;2023-02-13T01:56:36;22.42;51.13
31443;SHT31;18065;55.876;9.830;2023-02-13T01:59:07;22.41;51.02
31443;SHT31;18065;55.876;9.830;2023-02-13T02:01:37;22.44;51.06
31443;SHT31;18065;55.876;9.830;2023-02-13T02:04:10;22.41;51.11
31443;SHT31;18065;55.876;9.830;2023-02-13T02:06:46;22.44;51.11
31443;SHT31;18065;55.876;9.830;2023-02-13T02:09:19;22.44;51.13
31443;SHT31;18065;55.876;9.830;2023-02-13T02:11:52;22.42;51.07
31443;SHT31;18065;55.876;9.830;2023-02-13T02:14:24;22.42;51.03
31443;SHT31;18065;55.876;9.830;2023-02-13T02:16:53;22.41;51.08
31443;SHT31;18065;55.876;9.830;2023-02-13T02:19:29;22.41;51.11
31443;SHT31;18065;55.876;9.830;2023-02-13T02:22:23;22.41;51.24
31443;SHT31;18065;55.876;9.830;2023-02-13T02:28:24;22.38;51.15
31443;SHT31;18065;55.876;9.830;2023-02-13T02:31:18;22.39;51.19
31443;SHT31;18065;55.876;9.830;2023-02-13T02:34:05;22.38;51.18
31443;SHT31;18065;55.876;9.830;2023-02-13T02:36:46;22.41;51.16
31443;SHT31;18065;55.876;9.830;2023-02-13T02:39:22;22.39;51.13
31443;SHT31;18065;55.876;9.830;2023-02-13T02:41:59;22.39;51.15
31443;SHT31;18065;55.876;9.830;2023-02-13T02:44:34;22.39;51.07
31443;SHT31;18065;55.876;9.830;2023-02-13T02:47:17;22.39;51.11
31443;SHT31;18065;55.876;9.830;2023-02-13T02:50:06;22.42;51.22
31443;SHT31;18065;55.876;9.830;2023-02-13T02:52:45;22.39;51.07
31443;SHT31;18065;55.876;9.830;2023-02-13T02:55:23;22.39;51.09
31443;SHT31;18065;55.876;9.830;2023-02-13T02:58:02;22.38;51.10
31443;SHT31;18065;55.876;9.830;2023-02-13T03:00:45;22.38;51.10
31443;SHT31;18065;55.876;9.830;2023-02-13T03:03:27;22.39;50.99
31443;SHT31;18065;55.876;9.830;2023-02-13T03:06:16;22.38;51.09
31443;SHT31;18065;55.876;9.830;2023-02-13T03:08:52;22.37;51.03
31443;SHT31;18065;55.876;9.830;2023-02-13T03:11:34;22.41;51.08
31443;SHT31;18065;55.876;9.830;2023-02-13T03:14:19;22.37;51.02
31443;SHT31;18065;55.876;9.830;2023-02-13T03:16:48;22.41;51.01
31443;SHT31;18065;55.876;9.830;2023-02-13T03:19:37;22.39;51.07
31443;SHT31;18065;55.876;9.830;2023-02-13T03:22:33;22.39;51.07
31443;SHT31;18065;55.876;9.830;2023-02-13T03:25:10;22.38;51.04
31443;SHT31;18065;55.876;9.830;2023-02-13T03:27:44;22.38;51.04
31443;SHT31;18065;55.876;9.830;2023-02-13T03:30:35;22.38;51.01
31443;SHT31;18065;55.876;9.830;2023-02-13T03:36:03;22.37;51.01
31443;SHT31;18065;55.876;9.830;2023-02-13T03:38:54;22.41;50.98
31443;SHT31;18065;55.876;9.830;2023-02-13T03:41:29;22.39;50.95
31443;SHT31;18065;55.876;9.830;2023-02-13T03:44:07;22.39;50.99
31443;SHT31;18065;55.876;9.830;2023-02-13T03:46:39;22.41;50.99
31443;SHT31;18065;55.876;9.830;2023-02-13T03:49:12;22.39;50.85
31443;SHT31;18065;55.876;9.830;2023-02-13T03:52:00;22.37;50.85
31443;SHT31;18065;55.876;9.830;2023-02-13T03:54:37;22.38;50.91
31443;SHT31;18065;55.876;9.830;2023-02-13T03:57:21;22.39;50.91
31443;SHT31;18065;55.876;9.830;2023-02-13T04:00:06;22.38;50.92
31443;SHT31;18065;55.876;9.830;2023-02-13T04:02:40;22.39;50.91
31443;SHT31;18065;55.876;9.830;2023-02-13T04:05:14;22.38;50.91
31443;SHT31;18065;55.876;9.830;2023-02-13T04:07:43;22.41;50.97
31443;SHT31;18065;55.876;9.830;2023-02-13T04:10:16;22.35;50.80
31443;SHT31;18065;55.876;9.830;2023-02-13T04:12:51;22.37;50.87
31443;SHT31;18065;55.876;9.830;2023-02-13T04:15:25;22.38;50.94
31443;SHT31;18065;55.876;9.830;2023-02-13T04:17:58;22.37;50.94
31443;SHT31;18065;55.876;9.830;2023-02-13T04:20:30;22.38;50.94
31443;SHT31;18065;55.876;9.830;2023-02-13T04:23:04;22.38;50.97
31443;SHT31;18065;55.876;9.830;2023-02-13T04:25:38;22.37;50.90
31443;SHT31;18065;55.876;9.830;2023-02-13T04:28:07;22.37;50.92
31443;SHT31;18065;55.876;9.830;2023-02-13T04:30:36;22.38;50.96
31443;SHT31;18065;55.876;9.830;2023-02-13T04:33:04;22.38;50.88
31443;SHT31;18065;55.876;9.830;2023-02-13T04:35:33;22.38;50.88
31443;SHT31;18065;55.876;9.830;2023-02-13T04:38:02;22.35;50.92
31443;SHT31;18065;55.876;9.830;2023-02-13T04:40:31;22.37;50.89
31443;SHT31;18065;55.876;9.830;2023-02-13T04:43:03;22.37;50.90
31443;SHT31;18065;55.876;9.830;2023-02-13T04:45:31;22.38;50.88
31443;SHT31;18065;55.876;9.830;2023-02-13T04:48:00;22.37;50.89
31443;SHT31;18065;55.876;9.830;2023-02-13T04:50:29;22.38;50.85
31443;SHT31;18065;55.876;9.830;2023-02-13T04:52:58;22.38;50.87
31443;SHT31;18065;55.876;9.830;2023-02-13T04:55:27;22.38;50.85
31443;SHT31;18065;55.876;9.830;2023-02-13T04:57:56;22.39;50.80
31443;SHT31;18065;55.876;9.830;2023-02-13T05:00:27;22.35;50.75
31443;SHT31;18065;55.876;9.830;2023-02-13T05:02:59;22.35;50.73
31443;SHT31;18065;55.876;9.830;2023-02-13T05:05:31;22.38;50.72
31443;SHT31;18065;55.876;9.830;2023-02-13T05:08:00;22.37;50.70
31443;SHT31;18065;55.876;9.830;2023-02-13T05:10:29;22.37;50.69
31443;SHT31;18065;55.876;9.830;2023-02-13T05:12:57;22.37;50.70
31443;SHT31;18065;55.876;9.830;2023-02-13T05:15:29;22.37;50.73
31443;SHT31;18065;55.876;9.830;2023-02-13T05:17:58;22.39;50.66
31443;SHT31;18065;55.876;9.830;2023-02-13T05:20:26;22.37;50.68
31443;SHT31;18065;55.876;9.830;2023-02-13T05:22:55;22.35;50.66
31443;SHT31;18065;55.876;9.830;2023-02-13T05:25:38;22.34;50.57
31443;SHT31;18065;55.876;9.830;2023-02-13T05:28:07;22.37;50.46
31443;SHT31;18065;55.876;9.830;2023-02-13T05:30:59;22.38;50.56
31443;SHT31;18065;55.876;9.830;2023-02-13T05:33:28;22.38;50.48
31443;SHT31;18065;55.876;9.830;2023-02-13T05:35:56;22.38;50.48
31443;SHT31;18065;55.876;9.830;2023-02-13T05:38:25;22.38;50.59
31443;SHT31;18065;55.876;9.830;2023-02-13T05:40:54;22.37;50.67
31443;SHT31;18065;55.876;9.830;2023-02-13T05:43:22;22.37;50.73
31443;SHT31;18065;55.876;9.830;2023-02-13T05:45:51;22.37;51.50
31443;SHT31;18065;55.876;9.830;2023-02-13T05:48:30;22.32;51.85
31443;SHT31;18065;55.876;9.830;2023-02-13T05:50:59;22.29;52.04
31443;SHT31;18065;55.876;9.830;2023-02-13T05:53:28;22.27;51.97
31443;SHT31;18065;55.876;9.830;2023-02-13T05:56:00;22.24;52.27
31443;SHT31;18065;55.876;9.830;2023-02-13T05:58:28;22.25;52.22
31443;SHT31;18065;55.876;9.830;2023-02-13T06:00:58;22.22;52.23
31443;SHT31;18065;55.876;9.830;2023-02-13T06:03:30;22.22;52.03
31443;SHT31;18065;55.876;9.830;2023-02-13T06:05:59;22.25;51.67
31443;SHT31;18065;55.876;9.830;2023-02-13T06:08:28;22.27;51.57
31443;SHT31;18065;55.876;9.830;2023-02-13T06:10:59;22.28;51.65
31443;SHT31;18065;55.876;9.830;2023-02-13T06:13:28;22.28;51.58
31443;SHT31;18065;55.876;9.830;2023-02-13T06:15:57;22.27;51.66
31443;SHT31;18065;55.876;9.830;2023-02-13T06:18:26;22.24;51.73
31443;SHT31;18065;55.876;9.830;2023-02-13T06:20:57;22.28;51.67
31443;SHT31;18065;55.876;9.830;2023-02-13T06:23:26;22.27;51.73
31443;SHT31;18065;55.876;9.830;2023-02-13T06:25:55;22.25;51.79
31443;SHT31;18065;55.876;9.830;2023-02-13T06:28:24;22.24;51.76
31443;SHT31;18065;55.876;9.830;2023-02-13T06:30:53;22.24;51.86
31443;SHT31;18065;55.876;9.830;2023-02-13T06:33:21;22.24;51.89
31443;SHT31;18065;55.876;9.830;2023-02-13T06:35:50;22.22;51.83
31443;SHT31;18065;55.876;9.830;2023-02-13T06:38:21;22.22;51.66
31443;SHT31;18065;55.876;9.830;2023-02-13T06:40:50;22.24;51.82
31443;SHT31;18065;55.876;9.830;2023-02-13T06:43:19;22.22;51.77
31443;SHT31;18065;55.876;9.830;2023-02-13T06:45:48;22.22;51.70
31443;SHT31;18065;55.876;9.830;2023-02-13T06:48:18;22.22;51.63
31443;SHT31;18065;55.876;9.830;2023-02-13T06:50:47;22.22;51.65
31443;SHT31;18065;55.876;9.830;2023-02-13T06:53:17;22.27;51.53
31443;SHT31;18065;55.876;9.830;2023-02-13T06:55:52;22.27;51.52
31443;SHT31;18065;55.876;9.830;2023-02-13T06:58:22;22.22;51.71
31443;SHT31;18065;55.876;9.830;2023-02-13T07:00:51;22.24;51.76
31443;SHT31;18065;55.876;9.830;2023-02-13T07:03:20;22.24;51.68
31443;SHT31;18065;55.876;9.830;2023-02-13T07:05:49;22.21;51.44
31443;SHT31;18065;55.876;9.830;2023-02-13T07:08:21;22.24;51.50
31443;SHT31;18065;55.876;9.830;2023-02-13T07:10:52;22.24;51.57
31443;SHT31;18065;55.876;9.830;2023-02-13T07:13:21;22.25;51.68
31443;SHT31;18065;55.876;9.830;2023-02-13T07:15:49;22.24;51.43
31443;SHT31;18065;55.876;9.830;2023-02-13T07:18:18;22.22;51.64
31443;SHT31;18065;55.876;9.830;2023-02-13T07:20:47;22.22;51.49
31443;SHT31;18065;55.876;9.830;2023-02-13T07:23:15;22.22;51.54
31443;SHT31;18065;55.876;9.830;2023-02-13T07:25:44;22.20;51.42
31443;SHT31;18065;55.876;9.830;2023-02-13T07:28:15;22.22;51.45
31443;SHT31;18065;55.876;9.830;2023-02-13T07:30:44;22.22;51.48
31443;SHT31;18065;55.876;9.830;2023-02-13T07:33:13;22.21;51.40
31443;SHT31;18065;55.876;9.830;2023-02-13T07:35:45;22.22;51.33
31443;SHT31;18065;55.876;9.830;2023-02-13T07:38:14;22.24;51.08
31443;SHT31;18065;55.876;9.830;2023-02-13T07:40:43;22.22;51.12
31443;SHT31;18065;55.876;9.830;2023-02-13T07:43:15;22.24;51.00
31443;SHT31;18065;55.876;9.830;2023-02-13T07:45:43;22.24;50.91
31443;SHT31;18065;55.876;9.830;2023-02-13T07:48:12;22.22;50.94
31443;SHT31;18065;55.876;9.830;2023-02-13T07:50:41;22.22;50.93
31443;SHT31;18065;55.876;9.830;2023-02-13T07:53:09;22.24;50.94
31443;SHT31;18065;55.876;9.830;2023-02-13T07:55:38;22.22;50.90
31443;SHT31;18065;55.876;9.830;2023-02-13T07:58:07;22.25;50.83
31443;SHT31;18065;55.876;9.830;2023-02-13T08:00:38;22.24;50.91
31443;SHT31;18065;55.876;9.830;2023-02-13T08:03:08;22.24;50.78
31443;SHT31;18065;55.876;9.830;2023-02-13T08:05:37;22.22;50.85
31443;SHT31;18065;55.876;9.830;2023-02-13T08:08:06;22.22;50.81
31443;SHT31;18065;55.876;9.830;2023-02-13T08:10:34;22.21;50.85
31443;SHT31;18065;55.876;9.830;2023-02-13T08:13:16;22.22;50.88
31443;SHT31;18065;55.876;9.830;2023-02-13T08:15:47;22.24;50.83
31443;SHT31;18065;55.876;9.830;2023-02-13T08:18:16;22.20;50.79
31443;SHT31;18065;55.876;9.830;2023-02-13T08:20:45;22.21;50.77
31443;SHT31;18065;55.876;9.830;2023-02-13T08:23:14;22.21;50.78
31443;SHT31;18065;55.876;9.830;2023-02-13T08:25:42;22.21;50.74
31443;SHT31;18065;55.876;9.830;2023-02-13T08:28:12;22.22;50.73
31443;SHT31;18065;55.876;9.830;2023-02-13T08:30:41;22.24;50.74
31443;SHT31;18065;55.876;9.830;2023-02-13T08:33:12;22.24;50.67
31443;SHT31;18065;55.876;9.830;2023-02-13T08:35:41;22.24;50.65
31443;SHT31;18065;55.876;9.830;2023-02-13T08:38:10;22.22;50.66
31443;SHT31;18065;55.876;9.830;2023-02-13T08:40:39;22.22;50.61
31443;SHT31;18065;55.876;9.830;2023-02-13T08:43:08;22.20;50.79
31443;SHT31;18065;55.876;9.830;2023-02-13T08:45:36;22.20;50.63
31443;SHT31;18065;55.876;9.830;2023-02-13T08:48:05;22.22;50.49
31443;SHT31;18065;55.876;9.830;2023-02-13T08:50:37;22.20;50.68
31443;SHT31;18065;55.876;9.830;2023-02-13T08:53:06;22.21;50.63
31443;SHT31;18065;55.876;9.830;2023-02-13T08:55:35;22.20;50.64
31443;SHT31;18065;55.876;9.830;2023-02-13T08:58:04;22.21;50.63
31443;SHT31;18065;55.876;9.830;2023-02-13T09:00:33;22.20;50.67
31443;SHT31;18065;55.876;9.830;2023-02-13T09:03:02;22.21;50.53
31443;SHT31;18065;55.876;9.830;2023-02-13T09:05:31;22.20;50.59
31443;SHT31;18065;55.876;9.830;2023-02-13T09:08:03;22.21;50.62
31443;SHT31;18065;55.876;9.830;2023-02-13T09:10:33;22.18;50.63
31443;SHT31;18065;55.876;9.830;2023-02-13T09:13:02;22.21;50.62
31443;SHT31;18065;55.876;9.830;2023-02-13T09:15:31;22.20;50.68
31443;SHT31;18065;55.876;9.830;2023-02-13T09:18:00;22.20;50.62
31443;SHT31;18065;55.876;9.830;2023-02-13T09:20:29;22.17;50.66
31443;SHT31;18065;55.876;9.830;2023-02-13T09:22:58;22.17;50.71
31443;SHT31;18065;55.876;9.830;2023-02-13T09:25:30;22.17;50.67
31443;SHT31;18065;55.876;9.830;2023-02-13T09:27:59;22.20;50.74
31443;SHT31;18065;55.876;9.830;2023-02-13T09:30:27;22.17;50.60
31443;SHT31;18065;55.876;9.830;2023-02-13T09:32:56;22.17;50.74
31443;SHT31;18065;55.876;9.830;2023-02-13T09:35:25;22.16;50.70
31443;SHT31;18065;55.876;9.830;2023-02-13T09:37:53;22.17;50.67
31443;SHT31;18065;55.876;9.830;2023-02-13T09:40:27;22.17;50.71
31443;SHT31;18065;55.876;9.830;2023-02-13T09:43:04;22.13;50.67
31443;SHT31;18065;55.876;9.830;2023-02-13T09:45:34;22.16;50.67
31443;SHT31;18065;55.876;9.830;2023-02-13T09:48:04;22.14;50.69
31443;SHT31;18065;55.876;9.830;2023-02-13T09:50:33;22.16;50.66
31443;SHT31;18065;55.876;9.830;2023-02-13T09:53:03;22.16;50.65
31443;SHT31;18065;55.876;9.830;2023-02-13T09:55:36;22.13;50.70
31443;SHT31;18065;55.876;9.830;2023-02-13T09:58:19;22.13;50.73
31443;SHT31;18065;55.876;9.830;2023-02-13T10:00:53;22.14;50.71
31443;SHT31;18065;55.876;9.830;2023-02-13T10:03:28;22.13;50.69
31443;SHT31;18065;55.876;9.830;2023-02-13T10:06:04;22.14;50.67
31443;SHT31;18065;55.876;9.830;2023-02-13T10:08:55;22.11;50.74
31443;SHT31;18065;55.876;9.830;2023-02-13T10:11:37;22.11;50.68
31443;SHT31;18065;55.876;9.830;2023-02-13T10:14:16;22.14;50.67
31443;SHT31;18065;55.876;9.830;2023-02-13T10:16:48;22.11;50.65
31443;SHT31;18065;55.876;9.830;2023-02-13T10:19:31;22.11;50.65
31443;SHT31;18065;55.876;9.830;2023-02-13T10:22:09;22.08;50.54
31443;SHT31;18065;55.876;9.830;2023-02-13T10:24:42;22.10;50.70
31443;SHT31;18065;55.876;9.830;2023-02-13T10:27:19;22.14;50.62
31443;SHT31;18065;55.876;9.830;2023-02-13T10:29:56;22.11;50.59
31443;SHT31;18065;55.876;9.830;2023-02-13T10:32:53;22.16;50.54
31443;SHT31;18065;55.876;9.830;2023-02-13T10:35:36;22.17;50.39
31443;SHT31;18065;55.876;9.830;2023-02-13T10:38:13;22.17;50.42
31443;SHT31;18065;55.876;9.830;2023-02-13T10:41:02;22.20;50.40
31443;SHT31;18065;55.876;9.830;2023-02-13T10:43:37;22.22;50.34
31443;SHT31;18065;55.876;9.830;2023-02-13T10:46:19;22.20;50.36
31443;SHT31;18065;55.876;9.830;2023-02-13T10:49:00;22.21;50.42
31443;SHT31;18065;55.876;9.830;2023-02-13T10:51:34;22.22;50.26
31443;SHT31;18065;55.876;9.830;2023-02-13T10:54:19;22.21;50.37
31443;SHT31;18065;55.876;9.830;2023-02-13T10:56:55;22.22;50.27
31443;SHT31;18065;55.876;9.830;2023-02-13T11:02:31;22.22;50.20
31443;SHT31;18065;55.876;9.830;2023-02-13T11:05:12;22.22;50.26
31443;SHT31;18065;55.876;9.830;2023-02-13T11:07:41;22.22;50.27
31443;SHT31;18065;55.876;9.830;2023-02-13T11:10:14;22.27;50.27
31443;SHT31;18065;55.876;9.830;2023-02-13T11:12:44;22.24;50.27
31443;SHT31;18065;55.876;9.830;2023-02-13T11:15:24;22.25;50.34
31443;SHT31;18065;55.876;9.830;2023-02-13T11:17:59;22.24;50.35
31443;SHT31;18065;55.876;9.830;2023-02-13T11:20:32;22.24;50.31
31443;SHT31;18065;55.876;9.830;2023-02-13T11:23:21;22.25;50.35
31443;SHT31;18065;55.876;9.830;2023-02-13T11:25:59;22.22;50.27
31443;SHT31;18065;55.876;9.830;2023-02-13T11:28:30;22.24;50.32
31443;SHT31;18065;55.876;9.830;2023-02-13T11:31:10;22.21;50.31
31443;SHT31;18065;55.876;9.830;2023-02-13T11:33:42;22.24;50.29
31443;SHT31;18065;55.876;9.830;2023-02-13T11:36:14;22.22;50.29
31443;SHT31;18065;55.876;9.830;2023-02-13T11:38:43;22.25;50.26
31443;SHT31;18065;55.876;9.830;2023-02-13T11:41:13;22.21;50.22
31443;SHT31;18065;55.876;9.830;2023-02-13T11:43:45;22.25;50.27
31443;SHT31;18065;55.876;9.830;2023-02-13T11:46:18;22.27;50.19
31443;SHT31;18065;55.876;9.830;2023-02-13T11:49:01;22.29;50.16
31443;SHT31;18065;55.876;9.830;2023-02-13T11:51:38;22.31;50.20
31443;SHT31;18065;55.876;9.830;2023-02-13T11:54:25;22.32;50.47
31443;SHT31;18065;55.876;9.830;2023-02-13T11:56:56;22.32;50.44
31443;SHT31;18065;55.876;9.830;2023-02-13T11:59:30;22.37;50.43
31443;SHT31;18065;55.876;9.830;2023-02-13T12:02:12;22.37;50.47
31443;SHT31;18065;55.876;9.830;2023-02-13T12:04:45;22.38;50.39
31443;SHT31;18065;55.876;9.830;2023-02-13T12:07:18;22.42;50.36
31443;SHT31;18065;55.876;9.830;2023-02-13T12:09:50;22.41;50.32
31443;SHT31;18065;55.876;9.830;2023-02-13T12:12:26;22.44;50.37
31443;SHT31;18065;55.876;9.830;2023-02-13T12:14:56;22.42;50.35
31443;SHT31;18065;55.876;9.830;2023-02-13T12:17:26;22.42;50.26
31443;SHT31;18065;55.876;9.830;2023-02-13T12:20:01;22.45;50.30
31443;SHT31;18065;55.876;9.830;2023-02-13T12:22:39;22.45;50.26
31443;SHT31;18065;55.876;9.830;2023-02-13T12:25:25;22.47;50.22
31443;SHT31;18065;55.876;9.830;2023-02-13T12:28:06;22.44;50.23
31443;SHT31;18065;55.876;9.830;2023-02-13T12:30:55;22.48;50.24
31443;SHT31;18065;55.876;9.830;2023-02-13T12:36:43;22.47;50.19
31443;SHT31;18065;55.876;9.830;2023-02-13T12:39:17;22.49;50.16
31443;SHT31;18065;55.876;9.830;2023-02-13T12:42:05;22.49;50.21
31443;SHT31;18065;55.876;9.830;2023-02-13T12:44:50;22.49;50.15
31443;SHT31;18065;55.876;9.830;2023-02-13T12:47:23;22.48;50.16
31443;SHT31;18065;55.876;9.830;2023-02-13T12:53:11;22.52;50.13
31443;SHT31;18065;55.876;9.830;2023-02-13T12:55:55;22.51;50.07
31443;SHT31;18065;55.876;9.830;2023-02-13T12:58:44;22.52;50.09
31443;SHT31;18065;55.876;9.830;2023-02-13T13:01:25;22.54;50.06
31443;SHT31;18065;55.876;9.830;2023-02-13T13:04:07;22.52;50.11
31443;SHT31;18065;55.876;9.830;2023-02-13T13:07:02;22.55;50.10
31443;SHT31;18065;55.876;9.830;2023-02-13T13:09:59;22.54;50.11
31443;SHT31;18065;55.876;9.830;2023-02-13T13:12:39;22.54;50.14
31443;SHT31;18065;55.876;9.830;2023-02-13T13:15:16;22.54;50.09
31443;SHT31;18065;55.876;9.830;2023-02-13T13:17:56;22.56;50.08
31443;SHT31;18065;55.876;9.830;2023-02-13T13:20:39;22.55;50.07
31443;SHT31;18065;55.876;9.830;2023-02-13T13:23:14;22.56;49.98
31443;SHT31;18065;55.876;9.830;2023-02-13T13:25:56;22.55;50.05
31443;SHT31;18065;55.876;9.830;2023-02-13T13:28:31;22.56;50.03
31443;SHT31;18065;55.876;9.830;2023-02-13T13:31:02;22.55;49.95
31443;SHT31;18065;55.876;9.830;2023-02-13T13:33:32;22.55;50.04
31443;SHT31;18065;55.876;9.830;2023-02-13T13:36:07;22.56;50.06
31443;SHT31;18065;55.876;9.830;2023-02-13T13:38:43;22.56;50.09
31443;SHT31;18065;55.876;9.830;2023-02-13T13:41:24;22.55;50.07
31443;SHT31;18065;55.876;9.830;2023-02-13T13:44:05;22.58;50.08
31443;SHT31;18065;55.876;9.830;2023-02-13T13:46:47;22.56;50.09
31443;SHT31;18065;55.876;9.830;2023-02-13T13:49:26;22.56;50.04
31443;SHT31;18065;55.876;9.830;2023-02-13T13:52:18;22.56;50.06
31443;SHT31;18065;55.876;9.830;2023-02-13T13:54:48;22.58;50.00
31443;SHT31;18065;55.876;9.830;2023-02-13T13:57:21;22.58;49.99
31443;SHT31;18065;55.876;9.830;2023-02-13T14:06:00;22.56;50.06
31443;SHT31;18065;55.876;9.830;2023-02-13T14:11:39;22.56;50.23
31443;SHT31;18065;55.876;9.830;2023-02-13T14:17:12;22.56;50.22
31443;SHT31;18065;55.876;9.830;2023-02-13T14:19:45;22.59;50.18
31443;SHT31;18065;55.876;9.830;2023-02-13T14:22:32;22.58;50.25
31443;SHT31;18065;55.876;9.830;2023-02-13T14:25:04;22.58;50.19
31443;SHT31;18065;55.876;9.830;2023-02-13T14:27:35;22.59;50.19
31443;SHT31;18065;55.876;9.830;2023-02-13T14:30:06;22.59;50.11
31443;SHT31;18065;55.876;9.830;2023-02-13T14:32:52;22.58;50.16
31443;SHT31;18065;55.876;9.830;2023-02-13T14:35:24;22.61;50.14
31443;SHT31;18065;55.876;9.830;2023-02-13T14:37:54;22.61;50.11
31443;SHT31;18065;55.876;9.830;2023-02-13T14:40:30;22.59;50.09
31443;SHT31;18065;55.876;9.830;2023-02-13T14:43:06;22.59;50.05
31443;SHT31;18065;55.876;9.830;2023-02-13T14:45:47;22.61;50.03
31443;SHT31;18065;55.876;9.830;2023-02-13T14:48:21;22.61;50.09
31443;SHT31;18065;55.876;9.830;2023-02-13T14:50:52;22.62;50.03
31443;SHT31;18065;55.876;9.830;2023-02-13T14:53:23;22.61;50.13
31443;SHT31;18065;55.876;9.830;2023-02-13T14:55:56;22.61;50.08
31443;SHT31;18065;55.876;9.830;2023-02-13T14:58:28;22.61;50.02
31443;SHT31;18065;55.876;9.830;2023-02-13T15:01:03;22.61;50.06
31443;SHT31;18065;55.876;9.830;2023-02-13T15:03:43;22.58;50.05
31443;SHT31;18065;55.876;9.830;2023-02-13T15:06:20;22.61;50.01
31443;SHT31;18065;55.876;9.830;2023-02-13T15:08:51;22.58;50.00
31443;SHT31;18065;55.876;9.830;2023-02-13T15:11:41;22.59;50.07
31443;SHT31;18065;55.876;9.830;2023-02-13T15:14:22;22.56;50.02
31443;SHT31;18065;55.876;9.830;2023-02-13T15:16:54;22.56;49.89
31443;SHT31;18065;55.876;9.830;2023-02-13T15:19:26;22.58;49.91
31443;SHT31;18065;55.876;9.830;2023-02-13T15:21:57;22.56;49.90
31443;SHT31;18065;55.876;9.830;2023-02-13T15:24:36;22.54;49.91
31443;SHT31;18065;55.876;9.830;2023-02-13T15:27:06;22.55;49.88
31443;SHT31;18065;55.876;9.830;2023-02-13T15:29:35;22.56;49.82
31443;SHT31;18065;55.876;9.830;2023-02-13T15:32:17;22.55;49.84
31443;SHT31;18065;55.876;9.830;2023-02-13T15:34:49;22.55;49.83
31443;SHT31;18065;55.876;9.830;2023-02-13T15:37:21;22.56;49.81
31443;SHT31;18065;55.876;9.830;2023-02-13T15:39:50;22.58;49.78
31443;SHT31;18065;55.876;9.830;2023-02-13T15:42:19;22.54;49.73
31443;SHT31;18065;55.876;9.830;2023-02-13T15:44:50;22.54;49.72
31443;SHT31;18065;55.876;9.830;2023-02-13T15:47:26;22.49;49.72
31443;SHT31;18065;55.876;9.830;2023-02-13T15:49:58;22.51;49.71
31443;SHT31;18065;55.876;9.830;2023-02-13T15:52:30;22.52;49.73
31443;SHT31;18065;55.876;9.830;2023-02-13T15:55:00;22.52;49.72
31443;SHT31;18065;55.876;9.830;2023-02-13T15:57:29;22.52;49.68
31443;SHT31;18065;55.876;9.830;2023-02-13T15:59:58;22.49;49.68
31443;SHT31;18065;55.876;9.830;2023-02-13T16:02:33;22.48;49.68
31443;SHT31;18065;55.876;9.830;2023-02-13T16:05:10;22.47;49.65
31443;SHT31;18065;55.876;9.830;2023-02-13T16:07:58;22.48;49.70
31443;SHT31;18065;55.876;9.830;2023-02-13T16:10:28;22.48;49.61
31443;SHT31;18065;55.876;9.830;2023-02-13T16:12:58;22.47;49.54
31443;SHT31;18065;55.876;9.830;2023-02-13T16:15:30;22.47;49.59
31443;SHT31;18065;55.876;9.830;2023-02-13T16:18:00;22.49;49.54
31443;SHT31;18065;55.876;9.830;2023-02-13T16:20:34;22.47;49.53
31443;SHT31;18065;55.876;9.830;2023-02-13T16:23:06;22.47;49.50
31443;SHT31;18065;55.876;9.830;2023-02-13T16:25:41;22.48;49.51
31443;SHT31;18065;55.876;9.830;2023-02-13T16:28:16;22.48;49.48
31443;SHT31;18065;55.876;9.830;2023-02-13T16:30:59;22.47;49.46
31443;SHT31;18065;55.876;9.830;2023-02-13T16:33:29;22.48;49.41
31443;SHT31;18065;55.876;9.830;2023-02-13T16:36:17;22.49;49.45
31443;SHT31;18065;55.876;9.830;2023-02-13T16:38:48;22.51;49.40